Time;durP1;ratioP1;P1;durP2;ratioP2;P2;SDS_P1;SDS_P2;PMS_P1;PMS_P2;Temp;Humidity;BMP_temperature;BMP_pressure;BME280_temperature;BME280_humidity;BME280_pressure;Samples;Min_cycle;Max_cycle;Signal;HPM_P1;HPM_P2
2023/01/22 00:01:54;;;;;;;;;;;0.70;99.90;;;;;;5056307;28;19920;-52
2023/01/22 00:04:21;;;;;;;;;;;0.70;99.90;;;;;;5055317;28;19948;-53
2023/01/22 00:06:49;;;;;;;;;;;0.50;99.90;;;;;;5053916;28;19928;-55
2023/01/22 00:09:16;;;;;;;;;;;0.50;99.90;;;;;;5052366;28;20039;-54
2023/01/22 00:11:43;;;;;;;;;;;0.60;99.90;;;;;;5052958;28;19921;-53
2023/01/22 00:14:11;;;;;;;;;;;0.60;99.90;;;;;;5053242;28;19921;-56
2023/01/22 00:16:39;;;;;;;;;;;0.70;99.90;;;;;;5053611;28;19927;-52
2023/01/22 00:19:06;;;;;;;;;;;0.50;99.90;;;;;;5054599;28;19931;-55
2023/01/22 00:21:33;;;;;;;;;;;0.50;99.90;;;;;;5055208;28;20007;-55
2023/01/22 00:24:01;;;;;;;;;;;0.50;99.90;;;;;;5055734;28;19921;-54
2023/01/22 00:26:28;;;;;;;;;;;0.80;99.90;;;;;;5056250;28;19921;-54
2023/01/22 00:28:55;;;;;;;;;;;0.70;99.90;;;;;;5056545;28;19921;-55
2023/01/22 00:31:22;;;;;;;;;;;0.70;99.90;;;;;;5056994;28;20376;-54
2023/01/22 00:33:49;;;;;;;;;;;0.60;99.90;;;;;;5055696;28;19980;-55
2023/01/22 00:36:17;;;;;;;;;;;0.60;99.90;;;;;;5057190;28;20323;-55
2023/01/22 00:38:44;;;;;;;;;;;0.60;99.90;;;;;;5057005;28;19921;-51
2023/01/22 00:41:12;;;;;;;;;;;0.40;99.90;;;;;;5057150;28;19927;-52
2023/01/22 00:43:40;;;;;;;;;;;0.50;99.90;;;;;;5056902;28;20490;-54
2023/01/22 00:46:07;;;;;;;;;;;0.50;99.90;;;;;;5056842;28;19927;-53
2023/01/22 00:48:35;;;;;;;;;;;0.40;99.90;;;;;;5056949;28;19920;-54
2023/01/22 00:51:01;;;;;;;;;;;0.50;99.90;;;;;;5056690;28;19927;-54
2023/01/22 00:53:28;;;;;;;;;;;0.60;99.90;;;;;;5056028;28;19925;-54
2023/01/22 00:55:56;;;;;;;;;;;0.60;99.90;;;;;;5055908;28;19927;-54
2023/01/22 00:58:24;;;;;;;;;;;0.30;99.90;;;;;;5056256;28;20015;-54
2023/01/22 01:00:51;;;;;;;;;;;0.30;99.90;;;;;;5056633;28;19927;-53
2023/01/22 01:03:30;;;;;;;;;;;0.30;99.90;;;;;;5056151;28;19927;-52
2023/01/22 01:05:58;;;;;;;;;;;0.70;99.90;;;;;;5056631;28;19920;-53
2023/01/22 01:08:25;;;;;;;;;;;0.80;99.90;;;;;;5055314;28;19920;-53
2023/01/22 01:10:53;;;;;;;;;;;0.80;99.90;;;;;;5056328;28;19958;-54
2023/01/22 01:13:20;;;;;;;;;;;0.90;99.90;;;;;;5057133;28;19924;-53
2023/01/22 01:15:48;;;;;;;;;;;1.00;99.90;;;;;;5055717;28;20339;-49
2023/01/22 01:18:16;;;;;;;;;;;0.90;99.90;;;;;;5055256;28;19921;-50
2023/01/22 01:20:42;;;;;;;;;;;1.00;99.90;;;;;;5056763;28;20281;-53
2023/01/22 01:23:09;;;;;;;;;;;1.00;99.90;;;;;;5056571;28;19927;-54
2023/01/22 01:25:39;;;;;;;;;;;1.00;99.90;;;;;;5056307;28;20293;-53
2023/01/22 01:28:06;;;;;;;;;;;0.80;99.90;;;;;;5054938;28;20088;-53
2023/01/22 01:30:33;;;;;;;;;;;0.80;99.90;;;;;;5055894;28;19956;-52
2023/01/22 01:33:01;;;;;;;;;;;0.80;99.90;;;;;;5056115;28;20340;-52
2023/01/22 01:35:28;;;;;;;;;;;1.00;99.90;;;;;;5055923;28;19927;-54
2023/01/22 01:37:55;;;;;;;;;;;1.00;99.90;;;;;;5054728;28;20095;-55
2023/01/22 01:40:22;;;;;;;;;;;0.90;99.90;;;;;;5054882;28;20019;-53
2023/01/22 01:42:49;;;;;;;;;;;0.90;99.90;;;;;;5057094;28;19927;-54
2023/01/22 01:45:20;;;;;;;;;;;0.90;99.90;;;;;;5056782;28;19920;-55
2023/01/22 01:47:48;;;;;;;;;;;1.00;99.90;;;;;;5056611;28;19920;-53
2023/01/22 01:50:17;;;;;;;;;;;0.80;99.90;;;;;;5055215;28;20224;-55
2023/01/22 01:52:44;;;;;;;;;;;0.70;99.90;;;;;;5055182;28;19921;-52
2023/01/22 01:55:12;;;;;;;;;;;0.70;99.90;;;;;;5055709;28;19920;-55
2023/01/22 01:57:39;;;;;;;;;;;0.70;99.90;;;;;;5055832;28;19920;-53
2023/01/22 02:00:10;;;;;;;;;;;0.80;99.90;;;;;;5056439;28;19932;-52
2023/01/22 02:02:37;;;;;;;;;;;0.70;99.90;;;;;;5056129;28;19928;-54
2023/01/22 02:05:06;;;;;;;;;;;0.70;99.90;;;;;;5055736;28;19963;-52
2023/01/22 02:07:34;;;;;;;;;;;0.80;99.90;;;;;;5055461;28;19927;-53
2023/01/22 02:10:05;;;;;;;;;;;0.80;99.90;;;;;;5055605;28;19925;-50
2023/01/22 02:12:32;;;;;;;;;;;0.80;99.90;;;;;;5056629;28;19921;-51
2023/01/22 02:15:00;;;;;;;;;;;0.70;99.90;;;;;;5056541;28;20184;-49
2023/01/22 02:17:27;;;;;;;;;;;0.80;99.90;;;;;;5056585;28;20223;-50
2023/01/22 02:19:54;;;;;;;;;;;0.70;99.90;;;;;;5056264;28;20422;-54
2023/01/22 02:22:23;;;;;;;;;;;0.80;99.90;;;;;;5055628;28;20343;-50
2023/01/22 02:24:50;;;;;;;;;;;0.90;99.90;;;;;;5056414;28;19964;-54
2023/01/22 02:27:17;;;;;;;;;;;1.00;99.90;;;;;;5056464;28;19920;-56
2023/01/22 02:29:44;;;;;;;;;;;0.90;99.90;;;;;;5057015;28;19920;-55
2023/01/22 02:32:11;;;;;;;;;;;0.90;99.90;;;;;;5056411;28;19931;-53
2023/01/22 02:34:38;;;;;;;;;;;0.80;99.90;;;;;;5055740;28;20370;-54
2023/01/22 02:37:05;;;;;;;;;;;0.80;99.90;;;;;;5055560;28;20019;-50
2023/01/22 02:39:33;;;;;;;;;;;0.90;99.90;;;;;;5055818;28;19956;-51
2023/01/22 02:42:01;;;;;;;;;;;1.00;99.90;;;;;;5055274;28;19920;-52
2023/01/22 02:44:27;;;;;;;;;;;1.10;99.90;;;;;;5055275;28;19927;-54
2023/01/22 02:46:54;;;;;;;;;;;1.20;99.90;;;;;;5055122;28;20244;-56
2023/01/22 02:49:21;;;;;;;;;;;1.10;99.90;;;;;;5054949;28;19921;-55
2023/01/22 02:51:48;;;;;;;;;;;1.10;99.90;;;;;;5057956;28;19921;-54
2023/01/22 02:54:15;;;;;;;;;;;0.90;99.90;;;;;;5058725;28;19927;-55
2023/01/22 02:56:43;;;;;;;;;;;0.90;99.90;;;;;;5058929;28;19999;-53
2023/01/22 02:59:10;;;;;;;;;;;1.00;99.90;;;;;;5058530;28;19925;-53
2023/01/22 03:01:37;;;;;;;;;;;1.00;99.90;;;;;;5058944;28;19924;-51
2023/01/22 03:04:09;;;;;;;;;;;1.00;99.90;;;;;;5058700;28;20334;-52
2023/01/22 03:06:37;;;;;;;;;;;1.10;99.90;;;;;;5057191;28;19960;-55
2023/01/22 03:09:04;;;;;;;;;;;1.10;99.90;;;;;;5057440;28;19920;-54
2023/01/22 03:11:31;;;;;;;;;;;0.80;99.90;;;;;;5057674;28;20014;-50
2023/01/22 03:22:14;;;;;;;;;;;0.60;99.90;;;;;;5059170;28;19969;-52
2023/01/22 03:24:41;;;;;;;;;;;0.70;99.90;;;;;;5059454;28;19924;-55
2023/01/22 03:27:08;;;;;;;;;;;0.90;99.90;;;;;;5059585;28;19927;-53
2023/01/22 03:29:37;;;;;;;;;;;1.10;99.90;;;;;;5059725;28;19925;-56
2023/01/22 03:32:04;;;;;;;;;;;1.20;99.90;;;;;;5059677;28;19928;-55
2023/01/22 03:34:31;;;;;;;;;;;1.10;99.90;;;;;;5058972;28;20303;-54
2023/01/22 03:36:58;;;;;;;;;;;1.20;99.90;;;;;;5059154;28;20007;-55
2023/01/22 03:39:25;;;;;;;;;;;1.20;99.90;;;;;;5058359;28;19927;-55
2023/01/22 03:41:52;;;;;;;;;;;0.90;99.90;;;;;;5058698;28;19970;-56
2023/01/22 03:44:19;;;;;;;;;;;0.80;99.90;;;;;;5058270;28;19920;-50
2023/01/22 03:46:47;;;;;;;;;;;0.70;99.90;;;;;;5058493;28;19920;-55
2023/01/22 03:49:14;;;;;;;;;;;0.70;99.90;;;;;;5058244;28;19991;-54
2023/01/22 03:51:41;;;;;;;;;;;0.80;99.90;;;;;;5059103;28;20015;-52
2023/01/22 03:54:10;;;;;;;;;;;0.70;99.90;;;;;;5058463;28;19921;-53
2023/01/22 03:56:37;;;;;;;;;;;0.70;99.90;;;;;;5057809;28;20011;-51
2023/01/22 03:59:04;;;;;;;;;;;0.90;99.90;;;;;;5058562;28;19921;-53
2023/01/22 04:01:30;;;;;;;;;;;1.00;99.90;;;;;;5058168;28;20355;-53
2023/01/22 04:03:59;;;;;;;;;;;1.10;99.90;;;;;;5057473;28;19924;-54
2023/01/22 04:06:26;;;;;;;;;;;1.10;99.90;;;;;;5058328;28;19971;-54
2023/01/22 04:08:54;;;;;;;;;;;1.10;99.90;;;;;;5058756;28;19925;-54
2023/01/22 04:11:21;;;;;;;;;;;1.10;99.90;;;;;;5058727;28;20228;-56
2023/01/22 04:13:48;;;;;;;;;;;1.00;99.90;;;;;;5058280;28;20328;-55
2023/01/22 04:16:16;;;;;;;;;;;1.00;99.90;;;;;;5057730;28;19920;-49
2023/01/22 04:18:43;;;;;;;;;;;1.00;99.90;;;;;;5058107;28;20015;-56
2023/01/22 04:21:12;;;;;;;;;;;0.90;99.90;;;;;;5057472;28;19921;-52
2023/01/22 04:23:39;;;;;;;;;;;0.90;99.90;;;;;;5057787;28;19974;-50
2023/01/22 04:26:06;;;;;;;;;;;0.90;99.90;;;;;;5057672;28;19927;-51
2023/01/22 04:28:33;;;;;;;;;;;1.10;99.90;;;;;;5057369;28;19927;-56
2023/01/22 04:31:00;;;;;;;;;;;1.20;99.90;;;;;;5057553;28;20144;-57
2023/01/22 04:33:27;;;;;;;;;;;1.20;99.90;;;;;;5057479;28;19920;-53
2023/01/22 04:35:54;;;;;;;;;;;1.10;99.90;;;;;;5056223;28;19920;-53
2023/01/22 04:38:23;;;;;;;;;;;1.20;99.90;;;;;;5056565;28;20343;-53
2023/01/22 04:40:50;;;;;;;;;;;1.20;99.90;;;;;;5056189;28;19921;-51
2023/01/22 04:43:17;;;;;;;;;;;1.30;99.90;;;;;;5055573;28;20041;-56
2023/01/22 04:45:44;;;;;;;;;;;1.40;99.90;;;;;;5055119;28;19927;-54
2023/01/22 04:48:11;;;;;;;;;;;1.40;99.90;;;;;;5055580;28;19920;-55
2023/01/22 04:50:38;;;;;;;;;;;1.10;99.90;;;;;;5056010;28;19921;-56
2023/01/22 04:53:05;;;;;;;;;;;1.10;99.90;;;;;;5056924;28;19926;-56
2023/01/22 04:55:33;;;;;;;;;;;1.10;99.90;;;;;;5056270;28;19925;-56
2023/01/22 04:58:00;;;;;;;;;;;1.20;99.90;;;;;;5057051;28;19952;-55
2023/01/22 05:00:28;;;;;;;;;;;1.30;99.90;;;;;;5057511;28;20275;-54
2023/01/22 05:02:56;;;;;;;;;;;1.20;99.90;;;;;;5057892;28;19921;-55
2023/01/22 05:05:23;;;;;;;;;;;1.30;99.90;;;;;;5057542;28;19921;-55
2023/01/22 05:07:50;;;;;;;;;;;1.50;99.90;;;;;;5057333;28;20297;-56
2023/01/22 05:10:17;;;;;;;;;;;1.40;99.90;;;;;;5057556;28;19958;-55
2023/01/22 05:12:45;;;;;;;;;;;1.30;99.90;;;;;;5057241;28;19928;-55
2023/01/22 05:15:12;;;;;;;;;;;1.30;99.90;;;;;;5057312;28;19931;-55
2023/01/22 05:17:39;;;;;;;;;;;1.30;99.90;;;;;;5057160;28;20015;-56
2023/01/22 05:20:06;;;;;;;;;;;1.30;99.90;;;;;;5057081;28;19921;-50
2023/01/22 05:22:33;;;;;;;;;;;1.10;99.90;;;;;;5057350;28;20007;-50
2023/01/22 05:25:00;;;;;;;;;;;1.10;99.90;;;;;;5056765;28;20243;-53
2023/01/22 05:27:27;;;;;;;;;;;1.20;99.90;;;;;;5057109;28;19959;-56
2023/01/22 05:29:55;;;;;;;;;;;1.30;99.90;;;;;;5056695;28;20305;-54
2023/01/22 05:32:22;;;;;;;;;;;1.30;99.90;;;;;;5056735;28;19924;-53
2023/01/22 05:34:49;;;;;;;;;;;1.20;99.90;;;;;;5057202;28;19920;-52
2023/01/22 05:37:16;;;;;;;;;;;1.20;99.90;;;;;;5057381;28;19966;-51
2023/01/22 05:39:43;;;;;;;;;;;1.10;99.90;;;;;;5056368;28;20003;-51
2023/01/22 05:42:13;;;;;;;;;;;1.10;99.90;;;;;;5056974;28;19927;-50
2023/01/22 05:44:40;;;;;;;;;;;1.00;99.90;;;;;;5056450;28;20275;-53
2023/01/22 05:47:08;;;;;;;;;;;0.80;99.90;;;;;;5056882;28;19921;-55
2023/01/22 05:49:35;;;;;;;;;;;0.80;99.90;;;;;;5056528;28;19927;-51
2023/01/22 05:52:02;;;;;;;;;;;0.90;99.90;;;;;;5056636;28;20006;-55
2023/01/22 05:54:29;;;;;;;;;;;1.10;99.90;;;;;;5056417;28;19927;-54
2023/01/22 05:56:55;;;;;;;;;;;1.10;99.90;;;;;;5056228;28;20227;-52
2023/01/22 05:59:22;;;;;;;;;;;1.10;99.90;;;;;;5056354;28;19964;-55
2023/01/22 06:01:49;;;;;;;;;;;0.90;99.90;;;;;;5055749;28;20031;-53
2023/01/22 06:04:18;;;;;;;;;;;0.80;99.90;;;;;;5056027;28;19974;-52
2023/01/22 06:06:44;;;;;;;;;;;0.80;99.90;;;;;;5056084;28;19927;-54
2023/01/22 06:09:12;;;;;;;;;;;0.90;99.90;;;;;;5056075;28;20305;-59
2023/01/22 06:11:39;;;;;;;;;;;1.00;99.90;;;;;;5056136;28;19930;-54
2023/01/22 06:14:06;;;;;;;;;;;0.90;99.90;;;;;;5055342;28;20372;-56
2023/01/22 06:16:33;;;;;;;;;;;0.80;99.90;;;;;;5055969;28;19920;-54
2023/01/22 06:19:00;;;;;;;;;;;0.70;99.90;;;;;;5055600;28;19927;-53
2023/01/22 06:21:28;;;;;;;;;;;0.70;99.90;;;;;;5056260;28;19920;-52
2023/01/22 06:23:55;;;;;;;;;;;0.60;99.90;;;;;;5056395;28;20247;-53
2023/01/22 06:26:22;;;;;;;;;;;0.50;99.90;;;;;;5060595;28;20289;-53
2023/01/22 06:28:49;;;;;;;;;;;0.40;99.90;;;;;;5062287;28;20422;-50
2023/01/22 06:31:16;;;;;;;;;;;0.30;99.90;;;;;;5061429;28;19968;-48
2023/01/22 06:33:43;;;;;;;;;;;0.50;99.90;;;;;;5062006;28;20332;-55
2023/01/22 06:36:10;;;;;;;;;;;0.70;99.90;;;;;;5062284;28;19928;-54
2023/01/22 06:38:38;;;;;;;;;;;0.80;99.90;;;;;;5062164;28;19921;-50
2023/01/22 06:41:05;;;;;;;;;;;0.90;99.90;;;;;;5061849;28;20317;-53
2023/01/22 06:43:32;;;;;;;;;;;0.80;99.90;;;;;;5062687;28;19921;-52
2023/01/22 06:45:59;;;;;;;;;;;0.90;99.90;;;;;;5061590;28;20390;-55
2023/01/22 06:48:26;;;;;;;;;;;0.90;99.90;;;;;;5060711;28;19968;-52
2023/01/22 06:50:56;;;;;;;;;;;0.80;99.90;;;;;;5061373;28;20034;-55
2023/01/22 06:53:23;;;;;;;;;;;1.10;99.90;;;;;;5061537;28;20304;-52
2023/01/22 06:55:52;;;;;;;;;;;1.10;99.90;;;;;;5061395;28;19927;-52
2023/01/22 06:58:19;;;;;;;;;;;1.10;99.90;;;;;;5062484;28;19935;-52
2023/01/22 07:00:45;;;;;;;;;;;1.20;99.90;;;;;;5062583;28;20376;-54
2023/01/22 07:03:14;;;;;;;;;;;1.50;99.90;;;;;;5062820;28;19935;-50
2023/01/22 07:05:41;;;;;;;;;;;1.60;99.90;;;;;;5061520;28;20237;-52
2023/01/22 07:08:10;;;;;;;;;;;1.50;99.90;;;;;;5062271;28;20204;-55
2023/01/22 07:10:37;;;;;;;;;;;1.40;99.90;;;;;;5062177;28;20352;-55
2023/01/22 07:13:06;;;;;;;;;;;1.30;99.90;;;;;;5062900;28;20026;-54
2023/01/22 07:15:33;;;;;;;;;;;1.30;99.90;;;;;;5062490;28;19920;-50
2023/01/22 07:18:00;;;;;;;;;;;1.40;99.90;;;;;;5063138;28;19959;-52
2023/01/22 07:20:27;;;;;;;;;;;1.40;99.90;;;;;;5062549;28;19921;-49
2023/01/22 07:22:57;;;;;;;;;;;1.20;99.90;;;;;;5061968;28;19927;-50
2023/01/22 07:25:24;;;;;;;;;;;1.00;99.90;;;;;;5062424;28;20002;-52
2023/01/22 07:27:51;;;;;;;;;;;0.90;99.90;;;;;;5062790;28;19956;-54
2023/01/22 07:30:19;;;;;;;;;;;1.00;99.90;;;;;;5062698;28;19990;-54
2023/01/22 07:32:46;;;;;;;;;;;1.10;99.90;;;;;;5061791;28;19920;-52
2023/01/22 07:35:13;;;;;;;;;;;1.30;99.90;;;;;;5062110;28;19920;-48
2023/01/22 07:37:40;;;;;;;;;;;1.50;99.90;;;;;;5059162;28;19921;-54
2023/01/22 07:40:07;;;;;;;;;;;1.50;99.90;;;;;;5058647;28;19920;-55
2023/01/22 07:42:34;;;;;;;;;;;1.60;99.90;;;;;;5058882;28;20212;-53
2023/01/22 07:45:01;;;;;;;;;;;1.70;99.90;;;;;;5059019;28;19928;-53
2023/01/22 07:47:30;;;;;;;;;;;1.80;99.90;;;;;;5059260;28;20016;-54
2023/01/22 07:49:56;;;;;;;;;;;1.80;99.90;;;;;;5059595;28;19927;-53
2023/01/22 07:52:23;;;;;;;;;;;1.50;99.90;;;;;;5058676;28;20011;-52
2023/01/22 07:54:50;;;;;;;;;;;1.40;99.90;;;;;;5058498;28;19920;-55
2023/01/22 07:57:17;;;;;;;;;;;1.40;99.90;;;;;;5059090;28;20015;-55
2023/01/22 07:59:44;;;;;;;;;;;1.50;99.90;;;;;;5058951;28;19974;-51
2023/01/22 08:02:12;;;;;;;;;;;1.60;99.90;;;;;;5059140;28;20004;-54
2023/01/22 08:04:41;;;;;;;;;;;1.60;99.90;;;;;;5057627;28;19925;-55
2023/01/22 08:07:12;;;;;;;;;;;1.60;99.90;;;;;;5058034;28;19927;-52
2023/01/22 08:09:39;;;;;;;;;;;1.60;99.90;;;;;;5058417;28;19927;-53
2023/01/22 08:12:06;;;;;;;;;;;1.60;99.90;;;;;;5058643;28;20269;-53
2023/01/22 08:14:32;;;;;;;;;;;1.70;99.90;;;;;;5057558;28;19952;-54
2023/01/22 08:16:59;;;;;;;;;;;1.70;99.90;;;;;;5058754;28;19931;-51
2023/01/22 08:19:28;;;;;;;;;;;1.70;99.90;;;;;;5057753;28;20275;-53
2023/01/22 08:21:56;;;;;;;;;;;1.70;99.90;;;;;;5058514;28;19947;-53
2023/01/22 08:24:23;;;;;;;;;;;1.80;99.90;;;;;;5057803;28;19927;-55
2023/01/22 08:26:50;;;;;;;;;;;1.80;99.90;;;;;;5057839;28;19943;-54
2023/01/22 08:29:17;;;;;;;;;;;1.80;99.90;;;;;;5058137;28;19927;-51
2023/01/22 08:31:44;;;;;;;;;;;1.70;99.90;;;;;;5072880;28;20316;-53
2023/01/22 08:34:11;;;;;;;;;;;1.70;99.90;;;;;;5078292;28;19920;-52
2023/01/22 08:36:37;;;;;;;;;;;1.80;99.90;;;;;;5078065;28;19974;-54
2023/01/22 08:39:06;;;;;;;;;;;1.70;99.90;;;;;;5077029;28;20018;-54
2023/01/22 08:41:33;;;;;;;;;;;1.80;99.90;;;;;;5077040;28;19925;-56
2023/01/22 08:44:00;;;;;;;;;;;1.80;99.90;;;;;;5077303;28;19920;-55
2023/01/22 08:46:27;;;;;;;;;;;1.90;99.90;;;;;;5077734;28;20205;-55
2023/01/22 08:48:53;;;;;;;;;;;1.90;99.90;;;;;;5077007;28;20026;-54
2023/01/22 08:51:22;;;;;;;;;;;1.90;99.90;;;;;;5077159;28;19921;-52
2023/01/22 08:53:49;;;;;;;;;;;1.90;99.90;;;;;;5077572;28;20244;-53
2023/01/22 08:56:17;;;;;;;;;;;1.80;99.90;;;;;;5076929;28;19924;-54
2023/01/22 08:58:44;;;;;;;;;;;1.90;99.90;;;;;;5077368;28;20392;-51
2023/01/22 09:01:14;;;;;;;;;;;1.90;99.90;;;;;;5077093;28;19927;-53
2023/01/22 09:03:41;;;;;;;;;;;1.80;99.90;;;;;;5075873;28;19927;-52
2023/01/22 09:06:08;;;;;;;;;;;1.80;99.90;;;;;;5076751;28;20014;-54
2023/01/22 09:08:35;;;;;;;;;;;1.90;99.90;;;;;;5076213;28;19959;-55
2023/01/22 09:11:03;;;;;;;;;;;1.90;99.90;;;;;;5075848;28;19920;-54
2023/01/22 09:13:31;;;;;;;;;;;1.90;99.90;;;;;;5076436;28;19920;-55
2023/01/22 09:15:59;;;;;;;;;;;2.00;99.90;;;;;;5076032;28;19966;-51
2023/01/22 09:18:25;;;;;;;;;;;2.10;99.90;;;;;;5075949;28;20019;-54
2023/01/22 09:20:52;;;;;;;;;;;2.10;99.90;;;;;;5075784;28;19998;-52
2023/01/22 09:23:21;;;;;;;;;;;2.30;99.90;;;;;;5076006;28;19920;-52
2023/01/22 09:25:48;;;;;;;;;;;2.30;99.90;;;;;;5076199;28;20294;-53
2023/01/22 09:28:14;;;;;;;;;;;2.40;99.90;;;;;;5076449;28;20363;-49
2023/01/22 09:30:43;;;;;;;;;;;2.30;99.90;;;;;;5075266;28;20015;-55
2023/01/22 09:33:10;;;;;;;;;;;2.10;99.90;;;;;;5076254;28;19926;-54
2023/01/22 09:35:37;;;;;;;;;;;2.10;99.90;;;;;;5074683;28;19964;-54
2023/01/22 09:38:04;;;;;;;;;;;2.20;99.90;;;;;;5074959;28;19970;-54
2023/01/22 09:40:32;;;;;;;;;;;2.40;99.90;;;;;;5074020;28;19966;-54
2023/01/22 09:43:03;;;;;;;;;;;2.40;99.90;;;;;;5074302;28;19927;-52
2023/01/22 09:45:31;;;;;;;;;;;2.50;99.90;;;;;;5073641;28;19920;-51
2023/01/22 09:48:01;;;;;;;;;;;2.50;99.90;;;;;;5073847;28;20461;-53
2023/01/22 09:50:29;;;;;;;;;;;2.50;99.90;;;;;;5073299;28;19931;-53
2023/01/22 09:52:58;;;;;;;;;;;2.30;99.90;;;;;;5073898;28;19921;-55
2023/01/22 09:55:27;;;;;;;;;;;2.20;99.90;;;;;;5073289;28;19930;-53
2023/01/22 09:57:55;;;;;;;;;;;2.10;99.90;;;;;;5072851;28;19924;-53
2023/01/22 10:00:24;;;;;;;;;;;2.10;99.90;;;;;;5072709;28;20335;-54
2023/01/22 10:02:54;;;;;;;;;;;2.30;99.90;;;;;;5073306;28;20003;-51
2023/01/22 10:05:29;;;;;;;;;;;2.40;99.90;;;;;;5073874;28;19947;-51
2023/01/22 10:07:59;;;;;;;;;;;2.50;99.90;;;;;;5074626;28;19934;-49
2023/01/22 10:10:27;;;;;;;;;;;2.40;99.90;;;;;;5074943;28;20016;-55
2023/01/22 10:12:55;;;;;;;;;;;2.50;99.90;;;;;;5066137;28;19930;-51
2023/01/22 10:15:23;;;;;;;;;;;2.40;99.90;;;;;;5066895;28;20544;-54
2023/01/22 10:17:50;;;;;;;;;;;2.30;99.90;;;;;;5073483;28;19927;-54
2023/01/22 10:20:19;;;;;;;;;;;2.40;99.90;;;;;;5074767;28;20015;-53
2023/01/22 10:22:48;;;;;;;;;;;2.50;99.90;;;;;;5076077;28;20037;-53
2023/01/22 10:25:16;;;;;;;;;;;2.30;99.90;;;;;;5075521;28;20236;-54
2023/01/22 10:27:44;;;;;;;;;;;2.30;99.90;;;;;;5074643;28;19939;-54
2023/01/22 10:30:18;;;;;;;;;;;2.50;99.90;;;;;;5074826;28;20015;-53
2023/01/22 10:32:45;;;;;;;;;;;2.50;99.90;;;;;;5075831;28;19920;-54
2023/01/22 10:35:16;;;;;;;;;;;2.50;99.90;;;;;;5075762;28;19962;-55
2023/01/22 10:37:44;;;;;;;;;;;2.40;99.90;;;;;;5074852;28;19926;-50
2023/01/22 10:40:22;;;;;;;;;;;2.50;99.90;;;;;;5075458;28;19928;-50
2023/01/22 10:43:00;;;;;;;;;;;2.60;99.90;;;;;;5075666;28;20232;-50
2023/01/22 10:45:27;;;;;;;;;;;2.60;99.90;;;;;;5074452;28;20015;-53
2023/01/22 10:48:03;;;;;;;;;;;2.50;99.90;;;;;;5074392;28;20388;-56
2023/01/22 10:50:30;;;;;;;;;;;2.20;99.90;;;;;;5070140;28;20023;-52
2023/01/22 10:52:59;;;;;;;;;;;2.20;99.90;;;;;;5058477;28;20011;-56
2023/01/22 10:55:29;;;;;;;;;;;2.10;99.90;;;;;;5054692;28;19920;-55
2023/01/22 10:58:01;;;;;;;;;;;2.10;99.90;;;;;;5057437;28;19920;-55
2023/01/22 11:00:32;;;;;;;;;;;2.10;99.90;;;;;;5068382;28;19959;-52
2023/01/22 11:02:59;;;;;;;;;;;2.00;99.90;;;;;;5054957;28;19927;-52
2023/01/22 11:05:30;;;;;;;;;;;1.90;99.90;;;;;;5054529;28;19921;-54
2023/01/22 11:07:58;;;;;;;;;;;2.00;99.90;;;;;;5054040;28;20283;-54
2023/01/22 11:10:28;;;;;;;;;;;2.00;99.90;;;;;;5055536;28;20289;-55
2023/01/22 11:12:57;;;;;;;;;;;2.00;99.90;;;;;;5056299;28;19938;-54
2023/01/22 11:15:30;;;;;;;;;;;2.00;99.90;;;;;;5058141;28;19927;-55
2023/01/22 11:17:59;;;;;;;;;;;2.10;99.90;;;;;;5058082;28;19921;-55
2023/01/22 11:20:28;;;;;;;;;;;2.30;99.90;;;;;;5058089;28;20368;-56
2023/01/22 11:23:00;;;;;;;;;;;2.60;99.90;;;;;;5059064;28;20019;-54
2023/01/22 11:25:35;;;;;;;;;;;2.60;99.90;;;;;;5059245;28;20330;-54
2023/01/22 11:28:07;;;;;;;;;;;2.50;99.90;;;;;;5059350;28;20368;-52
2023/01/22 11:30:44;;;;;;;;;;;2.10;99.90;;;;;;5058291;28;19921;-52
2023/01/22 11:33:19;;;;;;;;;;;1.90;99.90;;;;;;5070419;28;19948;-55
2023/01/22 11:35:48;;;;;;;;;;;1.90;99.90;;;;;;5078481;28;19955;-55
2023/01/22 11:38:22;;;;;;;;;;;2.00;99.90;;;;;;5078729;28;20326;-55
2023/01/22 11:40:59;;;;;;;;;;;2.10;99.90;;;;;;5077747;28;20010;-55
2023/01/22 11:43:31;;;;;;;;;;;2.30;99.90;;;;;;5079089;28;19928;-54
2023/01/22 11:46:08;;;;;;;;;;;2.40;99.90;;;;;;5077437;28;19924;-54
2023/01/22 11:48:44;;;;;;;;;;;2.60;99.90;;;;;;5078327;28;20300;-56
2023/01/22 11:51:15;;;;;;;;;;;2.70;99.90;;;;;;5078338;28;20338;-55
2023/01/22 11:54:00;;;;;;;;;;;2.70;99.90;;;;;;5078832;28;19931;-54
2023/01/22 11:56:35;;;;;;;;;;;2.60;99.90;;;;;;5063815;28;19974;-56
2023/01/22 11:59:07;;;;;;;;;;;2.60;99.90;;;;;;5076081;28;19926;-57
2023/01/22 12:01:42;;;;;;;;;;;2.70;99.90;;;;;;5075612;28;19926;-55
2023/01/22 12:04:27;;;;;;;;;;;2.70;99.90;;;;;;5075527;28;20027;-57
2023/01/22 12:07:04;;;;;;;;;;;2.70;99.90;;;;;;5077159;28;19920;-56
2023/01/22 12:09:35;;;;;;;;;;;2.70;99.90;;;;;;5076166;28;19926;-54
2023/01/22 12:12:08;;;;;;;;;;;2.70;99.90;;;;;;5069259;28;19924;-56
2023/01/22 12:14:39;;;;;;;;;;;2.90;99.90;;;;;;5072493;28;20239;-57
2023/01/22 12:17:12;;;;;;;;;;;2.90;99.90;;;;;;5077365;28;19920;-57
2023/01/22 12:19:54;;;;;;;;;;;2.90;99.90;;;;;;5077593;28;19920;-58
2023/01/22 12:22:25;;;;;;;;;;;3.00;99.90;;;;;;5075792;28;20003;-56
2023/01/22 12:24:54;;;;;;;;;;;2.70;99.90;;;;;;5075492;28;20018;-58
2023/01/22 12:27:25;;;;;;;;;;;2.70;99.90;;;;;;5071631;28;19921;-58
2023/01/22 12:29:54;;;;;;;;;;;2.80;99.90;;;;;;5074999;28;20360;-57
2023/01/22 12:32:23;;;;;;;;;;;2.80;99.90;;;;;;5072091;28;19924;-54
2023/01/22 12:34:53;;;;;;;;;;;2.60;99.90;;;;;;5074811;28;19927;-55
2023/01/22 12:37:23;;;;;;;;;;;2.50;99.90;;;;;;5061223;28;19925;-58
2023/01/22 12:39:57;;;;;;;;;;;2.50;99.90;;;;;;5063636;28;19920;-58
2023/01/22 12:42:32;;;;;;;;;;;2.30;99.90;;;;;;5074957;28;20231;-57
2023/01/22 12:45:02;;;;;;;;;;;2.20;99.90;;;;;;5077268;28;19920;-56
2023/01/22 12:47:35;;;;;;;;;;;2.30;99.90;;;;;;5072760;28;19920;-57
2023/01/22 12:50:01;;;;;;;;;;;2.40;99.90;;;;;;5076938;28;19966;-54
2023/01/22 12:52:30;;;;;;;;;;;2.50;99.90;;;;;;5076533;28;20322;-57
2023/01/22 12:54:58;;;;;;;;;;;2.50;99.90;;;;;;5075957;28;19920;-56
2023/01/22 12:57:27;;;;;;;;;;;2.70;99.90;;;;;;5077706;28;19927;-57
2023/01/22 12:59:56;;;;;;;;;;;2.80;99.90;;;;;;5077679;28;19920;-57
2023/01/22 13:02:34;;;;;;;;;;;2.80;99.90;;;;;;5077157;28;20009;-58
2023/01/22 13:05:18;;;;;;;;;;;2.70;99.90;;;;;;5072276;28;19965;-58
2023/01/22 13:07:46;;;;;;;;;;;2.70;99.90;;;;;;5077493;28;20308;-58
2023/01/22 13:10:22;;;;;;;;;;;2.70;99.90;;;;;;5080044;28;19920;-54
2023/01/22 13:12:49;;;;;;;;;;;2.70;99.90;;;;;;5092837;28;19971;-57
2023/01/22 13:15:20;;;;;;;;;;;2.60;99.90;;;;;;5075755;28;19925;-56
2023/01/22 13:17:53;;;;;;;;;;;2.70;99.90;;;;;;5075849;28;19920;-56
2023/01/22 13:20:20;;;;;;;;;;;2.70;99.90;;;;;;5075581;28;19943;-57
2023/01/22 13:22:47;;;;;;;;;;;2.60;99.90;;;;;;5075164;28;19924;-54
2023/01/22 13:25:24;;;;;;;;;;;2.50;99.90;;;;;;5060753;28;19974;-56
2023/01/22 13:27:51;;;;;;;;;;;2.50;99.90;;;;;;5064293;28;19920;-56
2023/01/22 13:30:21;;;;;;;;;;;2.70;99.90;;;;;;5054881;28;20019;-57
2023/01/22 13:32:48;;;;;;;;;;;2.70;99.90;;;;;;5055666;28;19924;-54
2023/01/22 13:35:16;;;;;;;;;;;2.70;99.90;;;;;;5055866;28;19927;-56
2023/01/22 13:37:44;;;;;;;;;;;2.70;99.90;;;;;;5068803;28;19920;-55
2023/01/22 13:40:12;;;;;;;;;;;2.60;99.90;;;;;;5075464;28;19920;-54
2023/01/22 13:42:41;;;;;;;;;;;2.50;99.90;;;;;;5075964;28;19927;-56
2023/01/22 13:45:14;;;;;;;;;;;2.50;99.90;;;;;;5074996;28;19993;-56
2023/01/22 13:47:42;;;;;;;;;;;2.40;99.90;;;;;;5071499;28;19924;-57
2023/01/22 13:50:18;;;;;;;;;;;2.30;99.90;;;;;;5075823;28;19920;-57
2023/01/22 13:52:45;;;;;;;;;;;2.30;99.90;;;;;;5076066;28;19920;-56
2023/01/22 13:55:15;;;;;;;;;;;2.30;99.90;;;;;;5073876;28;20106;-54
2023/01/22 13:57:44;;;;;;;;;;;2.40;99.90;;;;;;5071358;28;19928;-55
2023/01/22 14:00:21;;;;;;;;;;;2.40;99.90;;;;;;5076561;28;19927;-56
2023/01/22 14:02:50;;;;;;;;;;;2.40;99.90;;;;;;5076626;28;20202;-56
2023/01/22 14:05:17;;;;;;;;;;;2.40;99.90;;;;;;5075176;28;19934;-56
2023/01/22 14:07:44;;;;;;;;;;;2.40;99.90;;;;;;5074442;28;20223;-54
2023/01/22 14:10:13;;;;;;;;;;;2.40;99.90;;;;;;5070195;28;19927;-55
2023/01/22 14:12:40;;;;;;;;;;;2.50;99.90;;;;;;5075033;28;19926;-56
2023/01/22 14:15:13;;;;;;;;;;;2.50;99.90;;;;;;5075192;28;19920;-56
2023/01/22 14:17:40;;;;;;;;;;;2.60;99.90;;;;;;5072680;28;20012;-56
2023/01/22 14:20:09;;;;;;;;;;;2.60;99.90;;;;;;5069771;28;20304;-55
2023/01/22 14:22:36;;;;;;;;;;;2.60;99.90;;;;;;5075885;28;19920;-54
2023/01/22 14:25:03;;;;;;;;;;;2.70;99.90;;;;;;5076193;28;20014;-56
2023/01/22 14:27:39;;;;;;;;;;;2.70;99.90;;;;;;5076353;28;19970;-56
2023/01/22 14:30:06;;;;;;;;;;;2.70;99.90;;;;;;5073099;28;19920;-57
2023/01/22 14:32:33;;;;;;;;;;;2.80;99.90;;;;;;5075346;28;19920;-56
2023/01/22 14:35:00;;;;;;;;;;;2.70;99.90;;;;;;5076199;28;20312;-55
2023/01/22 14:37:29;;;;;;;;;;;2.50;99.90;;;;;;5074984;28;20032;-56
2023/01/22 14:39:55;;;;;;;;;;;2.40;99.90;;;;;;5071393;28;19931;-56
2023/01/22 14:42:25;;;;;;;;;;;2.60;99.90;;;;;;5064176;28;20295;-56
2023/01/22 14:44:52;;;;;;;;;;;2.50;99.90;;;;;;5074565;28;19921;-56
2023/01/22 14:47:19;;;;;;;;;;;2.70;99.90;;;;;;5062518;28;19927;-55